USCGC Polar Star — NBTM — position and weather

sailwx.info

Track history (hours):
 
Tides and Currents Weather Stations Pressure Air Temp Water Temp Dewpoint Dewpoint Depression Visibility Wind Speed Wind Dir Waves Ship Positions

Oceanographic research ship USCGC Polar Star (USA)

Detailed information on ship capabilities available from University of Delaware's Ocean Information Center and ARCUS's ALIAS (Arctic Logistics Information and Support) project.

Last reported at 2018-Apr-11 15:37 UTC. Time now 2018-May-28 01:04 UTC.
Position N 38°04' W 122°16'.
Warning: this ship's position is 46 days out of date.

Type: Law enforcement. MMSI: 367255000.

Date/timePositionNaut miles runAvg speedWind from/ knotsBaromVisibWave heightAir tempDewpointWater temp
2018-Apr-11 15:37N 38°04' W 122°16'1 5.9
2018-Apr-11 15:30N 38°04' W 122°17'3 6.7
2018-Apr-11 15:00N 38°03' W 122°21'4 7.3
2018-Apr-11 14:30N 38°00' W 122°25'4 7.4
2018-Apr-11 14:00N 37°57' W 122°27'3 6.7
2018-Apr-11 13:30N 37°54' W 122°26'3 6.4
2018-Apr-11 13:00N 37°51' W 122°24'1 3.0
2018-Apr-11 12:30N 37°50' W 122°23'0 0.1
2018-Apr-11 12:00N 37°50' W 122°23'0 0.0
2018-Apr-11 11:30N 37°50' W 122°23'0 0.1
2018-Apr-11 11:00N 37°50' W 122°23'0 0.0
2018-Apr-11 10:30N 37°50' W 122°23'0 0.0
2018-Apr-11 10:00N 37°50' W 122°23'0 0.0
2018-Apr-11 09:30N 37°50' W 122°23'0 0.0
2018-Apr-11 09:00N 37°50' W 122°23'0 0.0
2018-Apr-11 08:30N 37°50' W 122°23'0 0.0
2018-Apr-11 08:01N 37°50' W 122°23'0 0.0
2018-Apr-11 07:31N 37°50' W 122°23'0 0.0
2018-Apr-11 07:00N 37°50' W 122°23'0 0.0
2018-Apr-11 06:30N 37°50' W 122°23'0 0.0
2018-Apr-11 06:01N 37°50' W 122°23'0 0.1
2018-Apr-11 05:30N 37°50' W 122°23'0 0.0
2018-Apr-11 04:44N 37°50' W 122°23'0 0.1
2018-Apr-11 04:30N 37°50' W 122°23'0 0.0
2018-Apr-11 04:00N 37°50' W 122°23'0 0.0
2018-Apr-11 03:30N 37°50' W 122°23'0 0.0
2018-Apr-11 03:00N 37°50' W 122°23'0 0.1
2018-Apr-11 02:30N 37°50' W 122°23'4 8.9
2018-Apr-11 02:00N 37°49' W 122°29'815.2
2018-Apr-11 01:30N 37°46' W 122°38'916.9
2018-Apr-11 00:59N 37°46' W 122°49'4 9.1
2018-Apr-11 00:30N 37°48' W 122°54'1 2.8
2018-Apr-11 00:00N 37°47' W 122°52'4 6.9
2018-Apr-10 23:28N 37°49' W 122°57'815.9
2018-Apr-10 23:00N 37°53' W 123°05'4 7.5
2018-Apr-10 22:30N 37°56' W 123°08'4 8.8
2018-Apr-10 22:00N 37°58' W 123°12'1019.5
2018-Apr-10 21:30N 38°06' W 123°20'40518.5
2018-Apr-09 23:39N 44°44' W 125°04'319.4
2018-Apr-09 23:30N 44°46' W 125°04'1019.4
2018-Apr-09 22:59N 44°57' W 125°04'1319.4
2018-Apr-09 22:18N 45°10' W 125°04'1241.1
2018-Apr-09 22:00N 45°22' W 125°02'3 6.1
2018-Apr-09 21:30N 45°25' W 125°03'1019.3
2018-Apr-09 21:00N 45°34' W 125°05'1019.4
2018-Apr-09 20:31N 45°44' W 125°05'1019.5
2018-Apr-09 20:00N 45°54' W 125°05'1419.2
2018-Apr-09 19:18N 46°07' W 125°06'518.9
2018-Apr-09 19:00N 46°13' W 125°06'1019.1
2018-Apr-09 18:31N 46°22' W 125°06'1319.2
2018-Apr-09 17:48N 46°36' W 125°06'1019.2
2018-Apr-09 17:17N 46°46' W 125°07'4 9.0
2018-Apr-09 16:53N 46°49' W 125°08'3 6.9
2018-Apr-09 16:30N 46°52' W 125°07'0 0.9
2018-Apr-09 16:00N 46°52' W 125°07'0 0.8
2018-Apr-09 15:30N 46°51' W 125°07'2 4.2
2018-Apr-09 14:59N 46°53' W 125°06'0 0.9
2018-Apr-09 14:28N 46°53' W 125°06'1 1.4
2018-Apr-09 14:00N 46°54' W 125°06'510.6
2018-Apr-09 13:30N 46°59' W 125°06'9012.9
2018-Apr-09 06:32N 48°29' W 125°06'112.2
2018-Apr-09 06:28N 48°29' W 125°05'510.5
2018-Apr-09 05:59N 48°31' W 124°58'510.4
2018-Apr-09 05:30N 48°31' W 124°51'715.0
2018-Apr-09 05:00N 48°30' W 124°40'713.9
2018-Apr-09 04:30N 48°26' W 124°30'3 6.8
2018-Apr-09 04:00N 48°25' W 124°25'5 9.3
2018-Apr-09 03:30N 48°24' W 124°19'611.4
2018-Apr-09 03:00N 48°21' W 124°11'1016.4
2018-Apr-09 02:25N 48°18' W 123°58'5911.1
2018-Apr-08 21:08N 47°59' W 122°35'319.9
2018-Apr-08 21:00N 47°57' W 122°32'815.1
2018-Apr-08 20:30N 47°50' W 122°27'612.7
2018-Apr-08 20:01N 47°44' W 122°26'5 9.9
2018-Apr-08 19:30N 47°39' W 122°27'2 4.1
2018-Apr-08 19:00N 47°37' W 122°24'3 5.8
2018-Apr-08 18:30N 47°36' W 122°21'0 0.6
2018-Apr-08 17:59N 47°35' W 122°21'0 0.0
2018-Apr-08 17:29N 47°35' W 122°21'0 0.0
2018-Apr-08 16:59N 47°35' W 122°21'0 0.0
2018-Apr-08 16:29N 47°35' W 122°21'0 0.0
2018-Apr-08 15:59N 47°35' W 122°21'0 0.0
2018-Apr-08 15:29N 47°35' W 122°21'  
2018-Apr-05 22:22N 47°35' W 122°21'0 0.0
2018-Apr-05 21:54N 47°35' W 122°21'0 0.0
2018-Apr-05 21:28N 47°35' W 122°21'0 0.0
2018-Apr-05 20:58N 47°35' W 122°21'0 0.0
2018-Apr-05 20:28N 47°35' W 122°21'0 0.0
2018-Apr-05 19:58N 47°35' W 122°21'0 0.0
2018-Apr-05 19:27N 47°35' W 122°21'0 0.0
2018-Apr-05 18:57N 47°35' W 122°21'0 0.0
2018-Apr-05 18:27N 47°35' W 122°21'0 0.0
2018-Apr-05 17:57N 47°35' W 122°21'0 0.0
2018-Apr-05 17:25N 47°35' W 122°21'0 0.0
2018-Apr-05 16:57N 47°35' W 122°21'0 0.0
2018-Apr-05 16:31N 47°35' W 122°21'0 0.0
2018-Apr-05 16:00N 47°35' W 122°21'0 0.0
2018-Apr-05 15:30N 47°35' W 122°21'0 0.0
2018-Apr-05 15:00N 47°35' W 122°21'0 0.0
2018-Apr-05 14:28N 47°35' W 122°21'0 0.0
2018-Apr-05 13:58N 47°35' W 122°21'0 0.0
2018-Apr-05 13:28N 47°35' W 122°21'0 0.0
2018-Apr-05 12:58N 47°35' W 122°21'0 0.0
2018-Apr-05 12:28N 47°35' W 122°21'0 0.0
2018-Apr-05 11:55N 47°35' W 122°21'0 0.0
2018-Apr-05 11:25N 47°35' W 122°21'0 0.0
2018-Apr-05 10:58N 47°35' W 122°21'0 0.0
2018-Apr-05 10:28N 47°35' W 122°21'0 0.1
2018-Apr-05 09:58N 47°35' W 122°20'0 0.0
2018-Apr-05 09:28N 47°35' W 122°20'0 0.1
2018-Apr-05 09:00N 47°35' W 122°21'0 0.0
2018-Apr-05 08:30N 47°35' W 122°21'0 0.0
2018-Apr-05 08:00N 47°35' W 122°21'0 0.0
2018-Apr-05 07:28N 47°35' W 122°21'0 0.0
2018-Apr-05 06:57N 47°35' W 122°21'0 0.0
2018-Apr-05 06:27N 47°35' W 122°21'0 0.0
2018-Apr-05 05:58N 47°35' W 122°21'0 0.0
2018-Apr-05 05:28N 47°35' W 122°21'0 0.0
2018-Apr-05 04:55N 47°35' W 122°21'0 0.0
2018-Apr-05 04:28N 47°35' W 122°21'0 0.0
2018-Apr-05 03:58N 47°35' W 122°21'0 0.0
2018-Apr-05 03:25N 47°35' W 122°21'0 0.0
2018-Apr-05 02:58N 47°35' W 122°21'  
Track history (hours):
 
Tides and Currents Weather Stations Pressure Air Temp Water Temp Dewpoint Dewpoint Depression Visibility Wind Speed Wind Dir Waves Ship Positions

Oceanographic research ship USCGC Polar Star (USA)

Detailed information on ship capabilities available from University of Delaware's Ocean Information Center and ARCUS's ALIAS (Arctic Logistics Information and Support) project.

Last reported at 2018-Apr-11 15:37 UTC. Time now 2018-May-28 01:04 UTC.
Position N 38°04' W 122°16'.
Warning: this ship's position is 46 days out of date.

Type: Law enforcement. MMSI: 367255000.

Date/timePositionNaut miles runAvg speedWind from/ knotsBaromVisibWave heightAir tempDewpointWater temp
2018-Apr-11 15:37N 38°04' W 122°16'1 5.9
2018-Apr-11 15:30N 38°04' W 122°17'3 6.7
2018-Apr-11 15:00N 38°03' W 122°21'4 7.3
2018-Apr-11 14:30N 38°00' W 122°25'4 7.4
2018-Apr-11 14:00N 37°57' W 122°27'3 6.7
2018-Apr-11 13:30N 37°54' W 122°26'3 6.4
2018-Apr-11 13:00N 37°51' W 122°24'1 3.0
2018-Apr-11 12:30N 37°50' W 122°23'0 0.1
2018-Apr-11 12:00N 37°50' W 122°23'0 0.0
2018-Apr-11 11:30N 37°50' W 122°23'0 0.1
2018-Apr-11 11:00N 37°50' W 122°23'0 0.0
2018-Apr-11 10:30N 37°50' W 122°23'0 0.0
2018-Apr-11 10:00N 37°50' W 122°23'0 0.0
2018-Apr-11 09:30N 37°50' W 122°23'0 0.0
2018-Apr-11 09:00N 37°50' W 122°23'0 0.0
2018-Apr-11 08:30N 37°50' W 122°23'0 0.0
2018-Apr-11 08:01N 37°50' W 122°23'0 0.0
2018-Apr-11 07:31N 37°50' W 122°23'0 0.0
2018-Apr-11 07:00N 37°50' W 122°23'0 0.0
2018-Apr-11 06:30N 37°50' W 122°23'0 0.0
2018-Apr-11 06:01N 37°50' W 122°23'0 0.1
2018-Apr-11 05:30N 37°50' W 122°23'0 0.0
2018-Apr-11 04:44N 37°50' W 122°23'0 0.1
2018-Apr-11 04:30N 37°50' W 122°23'0 0.0
2018-Apr-11 04:00N 37°50' W 122°23'0 0.0
2018-Apr-11 03:30N 37°50' W 122°23'0 0.0
2018-Apr-11 03:00N 37°50' W 122°23'0 0.1
2018-Apr-11 02:30N 37°50' W 122°23'4 8.9
2018-Apr-11 02:00N 37°49' W 122°29'815.2
2018-Apr-11 01:30N 37°46' W 122°38'916.9
2018-Apr-11 00:59N 37°46' W 122°49'4 9.1
2018-Apr-11 00:30N 37°48' W 122°54'1 2.8
2018-Apr-11 00:00N 37°47' W 122°52'4 6.9
2018-Apr-10 23:28N 37°49' W 122°57'815.9
2018-Apr-10 23:00N 37°53' W 123°05'4 7.5
2018-Apr-10 22:30N 37°56' W 123°08'4 8.8
2018-Apr-10 22:00N 37°58' W 123°12'1019.5
2018-Apr-10 21:30N 38°06' W 123°20'40518.5
2018-Apr-09 23:39N 44°44' W 125°04'319.4
2018-Apr-09 23:30N 44°46' W 125°04'1019.4
2018-Apr-09 22:59N 44°57' W 125°04'1319.4
2018-Apr-09 22:18N 45°10' W 125°04'1241.1
2018-Apr-09 22:00N 45°22' W 125°02'3 6.1
2018-Apr-09 21:30N 45°25' W 125°03'1019.3
2018-Apr-09 21:00N 45°34' W 125°05'1019.4
2018-Apr-09 20:31N 45°44' W 125°05'1019.5
2018-Apr-09 20:00N 45°54' W 125°05'1419.2
2018-Apr-09 19:18N 46°07' W 125°06'518.9
2018-Apr-09 19:00N 46°13' W 125°06'1019.1
2018-Apr-09 18:31N 46°22' W 125°06'1319.2
2018-Apr-09 17:48N 46°36' W 125°06'1019.2
2018-Apr-09 17:17N 46°46' W 125°07'4 9.0
2018-Apr-09 16:53N 46°49' W 125°08'3 6.9
2018-Apr-09 16:30N 46°52' W 125°07'0 0.9
2018-Apr-09 16:00N 46°52' W 125°07'0 0.8
2018-Apr-09 15:30N 46°51' W 125°07'2 4.2
2018-Apr-09 14:59N 46°53' W 125°06'0 0.9
2018-Apr-09 14:28N 46°53' W 125°06'1 1.4
2018-Apr-09 14:00N 46°54' W 125°06'510.6
2018-Apr-09 13:30N 46°59' W 125°06'9012.9
2018-Apr-09 06:32N 48°29' W 125°06'112.2
2018-Apr-09 06:28N 48°29' W 125°05'510.5
2018-Apr-09 05:59N 48°31' W 124°58'510.4
2018-Apr-09 05:30N 48°31' W 124°51'715.0
2018-Apr-09 05:00N 48°30' W 124°40'713.9
2018-Apr-09 04:30N 48°26' W 124°30'3 6.8
2018-Apr-09 04:00N 48°25' W 124°25'5 9.3
2018-Apr-09 03:30N 48°24' W 124°19'611.4
2018-Apr-09 03:00N 48°21' W 124°11'1016.4
2018-Apr-09 02:25N 48°18' W 123°58'5911.1
2018-Apr-08 21:08N 47°59' W 122°35'319.9
2018-Apr-08 21:00N 47°57' W 122°32'815.1
2018-Apr-08 20:30N 47°50' W 122°27'612.7
2018-Apr-08 20:01N 47°44' W 122°26'5 9.9
2018-Apr-08 19:30N 47°39' W 122°27'2 4.1
2018-Apr-08 19:00N 47°37' W 122°24'3 5.8
2018-Apr-08 18:30N 47°36' W 122°21'0 0.6
2018-Apr-08 17:59N 47°35' W 122°21'0 0.0
2018-Apr-08 17:29N 47°35' W 122°21'0 0.0
2018-Apr-08 16:59N 47°35' W 122°21'0 0.0
2018-Apr-08 16:29N 47°35' W 122°21'0 0.0
2018-Apr-08 15:59N 47°35' W 122°21'0 0.0
2018-Apr-08 15:29N 47°35' W 122°21'  
2018-Apr-05 22:22N 47°35' W 122°21'0 0.0
2018-Apr-05 21:54N 47°35' W 122°21'0 0.0
2018-Apr-05 21:28N 47°35' W 122°21'0 0.0
2018-Apr-05 20:58N 47°35' W 122°21'0 0.0
2018-Apr-05 20:28N 47°35' W 122°21'0 0.0
2018-Apr-05 19:58N 47°35' W 122°21'0 0.0
2018-Apr-05 19:27N 47°35' W 122°21'0 0.0
2018-Apr-05 18:57N 47°35' W 122°21'0 0.0
2018-Apr-05 18:27N 47°35' W 122°21'0 0.0
2018-Apr-05 17:57N 47°35' W 122°21'0 0.0
2018-Apr-05 17:25N 47°35' W 122°21'0 0.0
2018-Apr-05 16:57N 47°35' W 122°21'0 0.0
2018-Apr-05 16:31N 47°35' W 122°21'0 0.0
2018-Apr-05 16:00N 47°35' W 122°21'0 0.0
2018-Apr-05 15:30N 47°35' W 122°21'0 0.0
2018-Apr-05 15:00N 47°35' W 122°21'0 0.0
2018-Apr-05 14:28N 47°35' W 122°21'0 0.0
2018-Apr-05 13:58N 47°35' W 122°21'0 0.0
2018-Apr-05 13:28N 47°35' W 122°21'0 0.0
2018-Apr-05 12:58N 47°35' W 122°21'0 0.0
2018-Apr-05 12:28N 47°35' W 122°21'0 0.0
2018-Apr-05 11:55N 47°35' W 122°21'0 0.0
2018-Apr-05 11:25N 47°35' W 122°21'0 0.0
2018-Apr-05 10:58N 47°35' W 122°21'0 0.0
2018-Apr-05 10:28N 47°35' W 122°21'0 0.1
2018-Apr-05 09:58N 47°35' W 122°20'0 0.0
2018-Apr-05 09:28N 47°35' W 122°20'0 0.1
2018-Apr-05 09:00N 47°35' W 122°21'0 0.0
2018-Apr-05 08:30N 47°35' W 122°21'0 0.0
2018-Apr-05 08:00N 47°35' W 122°21'0 0.0
2018-Apr-05 07:28N 47°35' W 122°21'0 0.0
2018-Apr-05 06:57N 47°35' W 122°21'0 0.0
2018-Apr-05 06:27N 47°35' W 122°21'0 0.0
2018-Apr-05 05:58N 47°35' W 122°21'0 0.0
2018-Apr-05 05:28N 47°35' W 122°21'0 0.0
2018-Apr-05 04:55N 47°35' W 122°21'0 0.0
2018-Apr-05 04:28N 47°35' W 122°21'0 0.0
2018-Apr-05 03:58N 47°35' W 122°21'0 0.0
2018-Apr-05 03:25N 47°35' W 122°21'0 0.0
2018-Apr-05 02:58N 47°35' W 122°21'  

Dump ship's entire track history